createdAt,value
2019-04-28T00:00:11.420Z,101420.70
2019-04-28T00:02:42.473Z,101412.27
2019-04-28T00:05:11.798Z,101409.03
2019-04-28T00:07:41.215Z,101404.19
2019-04-28T00:10:11.766Z,101410.36
2019-04-28T00:12:41.346Z,101409.30
2019-04-28T00:15:11.732Z,101405.39
2019-04-28T00:17:41.995Z,101411.52
2019-04-28T00:20:13.402Z,101409.67
2019-04-28T00:22:47.861Z,101406.52
2019-04-28T00:25:21.645Z,101403.56
2019-04-28T00:27:51.619Z,101409.27
2019-04-28T00:30:21.767Z,101407.63
2019-04-28T00:32:52.781Z,101407.47
2019-04-28T00:35:23.241Z,101412.28
2019-04-28T00:37:53.315Z,101405.33
2019-04-28T00:40:22.587Z,101401.55
2019-04-28T00:42:51.896Z,101406.08
2019-04-28T00:45:21.535Z,101414.84
2019-04-28T00:47:51.128Z,101413.26
2019-04-28T00:50:21.699Z,101411.88
2019-04-28T00:52:51.792Z,101412.06
2019-04-28T00:55:22.307Z,101410.77
2019-04-28T00:57:51.576Z,101415.55
2019-04-28T01:00:23.132Z,101413.37
2019-04-28T01:02:54.168Z,101418.95
2019-04-28T01:05:25.068Z,101406.92
2019-04-28T01:07:54.522Z,101406.92
2019-04-28T01:10:25.110Z,101406.92
2019-04-28T01:12:54.398Z,101407.23
2019-04-28T01:15:26.245Z,101411.80
2019-04-28T01:17:57.202Z,101410.50
2019-04-28T01:20:27.007Z,101404.72
2019-04-28T01:22:56.311Z,101408.36
2019-04-28T01:25:25.811Z,101401.03
2019-04-28T01:27:55.932Z,101400.02
2019-04-28T01:30:29.939Z,101400.40
2019-04-28T01:33:03.835Z,101399.02
2019-04-28T01:35:33.478Z,101403.77
2019-04-28T01:38:02.780Z,101402.16
2019-04-28T01:40:32.044Z,101407.11
2019-04-28T01:43:01.332Z,101405.72
2019-04-28T01:45:30.599Z,101403.80
2019-04-28T01:48:02.181Z,101406.55
2019-04-28T01:50:31.059Z,101397.03
2019-04-28T01:53:00.351Z,101399.23
2019-04-28T01:55:29.706Z,101397.62
2019-04-28T01:58:00.523Z,101392.09
2019-04-28T02:00:29.858Z,101391.70
2019-04-28T02:03:00.207Z,101386.16
2019-04-28T02:05:30.715Z,101389.31
2019-04-28T02:08:00.351Z,101392.16
2019-04-28T02:10:30.214Z,101387.22
2019-04-28T02:12:59.951Z,101397.30
2019-04-28T02:15:30.189Z,101400.95
2019-04-28T02:18:00.166Z,101401.45
2019-04-28T02:20:30.221Z,101402.75
2019-04-28T02:23:01.274Z,101406.39
2019-04-28T02:25:31.227Z,101404.22
2019-04-28T02:28:00.516Z,101407.94
2019-04-28T02:30:44.063Z,101408.16
2019-04-28T02:33:01.834Z,101403.72
2019-04-28T02:35:33.794Z,101404.23
2019-04-28T02:38:02.455Z,101414.93
2019-04-28T02:40:31.723Z,101406.66
2019-04-28T02:43:01.459Z,101406.49
2019-04-28T02:45:31.591Z,101407.34
2019-04-28T02:48:02.742Z,101413.13
2019-04-28T02:50:34.849Z,101413.13
2019-04-28T02:53:07.207Z,101418.30
2019-04-28T02:55:36.546Z,101420.37
2019-04-28T02:58:06.103Z,101421.19
2019-04-28T03:00:35.318Z,101427.11
2019-04-28T03:03:04.683Z,101416.44
2019-04-28T03:05:34.020Z,101421.57
2019-04-28T03:08:03.525Z,101428.31
2019-04-28T03:10:32.791Z,101424.41
2019-04-28T03:13:02.110Z,101425.76
2019-04-28T03:15:31.447Z,101422.39
2019-04-28T03:18:01.801Z,101430.64
2019-04-28T03:20:31.656Z,101427.93
2019-04-28T03:23:01.289Z,101429.13
2019-04-28T03:25:50.765Z,101431.52
2019-04-28T03:28:33.961Z,101433.69
2019-04-28T03:31:35.103Z,101434.35
2019-04-28T03:33:41.973Z,101434.41
2019-04-28T03:36:08.752Z,101437.50
2019-04-28T03:38:40.463Z,101431.58
2019-04-28T03:41:11.239Z,101430.03
2019-04-28T03:43:40.719Z,101424.27
2019-04-28T03:46:14.945Z,101427.42
2019-04-28T03:48:50.888Z,101432.30
2019-04-28T03:51:23.418Z,101432.55
2019-04-28T03:53:52.863Z,101435.48
2019-04-28T03:56:22.471Z,101436.49
2019-04-28T03:58:51.773Z,101432.39
2019-04-28T04:01:21.044Z,101435.48
2019-04-28T04:03:51.549Z,101437.94
2019-04-28T04:06:23.010Z,101436.96
2019-04-28T04:08:52.490Z,101432.55
2019-04-28T04:11:24.329Z,101437.44
2019-04-28T04:14:13.653Z,101429.31
2019-04-28T04:16:44.596Z,101431.14
2019-04-28T04:19:15.200Z,101432.34
2019-04-28T04:21:44.499Z,101431.55
2019-04-28T04:24:13.779Z,101430.77
2019-04-28T04:26:43.077Z,101429.75
2019-04-28T04:29:12.332Z,101428.62
2019-04-28T04:31:41.628Z,101433.31
2019-04-28T04:34:10.977Z,101428.91
2019-04-28T04:36:42.031Z,101426.67
2019-04-28T04:39:11.558Z,101425.09
2019-04-28T04:41:43.475Z,101425.59
2019-04-28T04:44:11.889Z,101433.94
2019-04-28T04:46:41.579Z,101431.17
2019-04-28T04:49:11.064Z,101433.34
2019-04-28T04:51:43.780Z,101440.33
2019-04-28T04:54:11.319Z,101437.19
2019-04-28T04:56:40.620Z,101444.11
2019-04-28T04:59:10.401Z,101443.14
2019-04-28T05:01:44.369Z,101447.33
2019-04-28T05:04:30.581Z,101455.73
2019-04-28T05:07:01.559Z,101460.20
2019-04-28T05:09:31.241Z,101452.52
2019-04-28T05:12:00.662Z,101462.97
2019-04-28T05:14:30.004Z,101459.22
2019-04-28T05:17:00.834Z,101462.87
2019-04-28T05:19:30.309Z,101461.64
2019-04-28T05:22:00.118Z,101469.83
2019-04-28T05:24:40.176Z,101470.59
2019-04-28T05:27:09.905Z,101469.75
2019-04-28T05:29:39.792Z,101470.63
2019-04-28T05:32:10.809Z,101470.19
2019-04-28T05:34:46.589Z,101466.20
2019-04-28T05:37:11.304Z,101469.00
2019-04-28T05:39:40.686Z,101477.97
2019-04-28T05:42:12.597Z,101483.02
2019-04-28T05:44:41.916Z,101479.88
2019-04-28T05:47:11.398Z,101483.80
2019-04-28T05:50:00.299Z,101487.11
2019-04-28T05:52:40.399Z,101487.48
2019-04-28T05:55:17.125Z,101482.99
2019-04-28T05:57:57.384Z,101489.55
2019-04-28T06:00:29.730Z,101490.61
2019-04-28T06:03:00.882Z,101489.27
2019-04-28T06:05:31.920Z,101491.29
2019-04-28T06:08:15.451Z,101496.59
2019-04-28T06:10:46.240Z,101495.69
2019-04-28T06:13:15.500Z,101500.47
2019-04-28T06:15:44.866Z,101505.41
2019-04-28T06:18:14.109Z,101503.48
2019-04-28T06:20:43.437Z,101510.88
2019-04-28T06:23:12.694Z,101517.36
2019-04-28T06:25:42.071Z,101520.14
2019-04-28T06:28:11.423Z,101527.14
2019-04-28T06:30:40.709Z,101535.18
2019-04-28T06:33:10.018Z,101531.30
2019-04-28T06:35:39.326Z,101544.20
2019-04-28T06:38:08.653Z,101544.34
2019-04-28T06:40:37.921Z,101547.42
2019-04-28T06:43:07.212Z,101544.66
2019-04-28T06:45:36.510Z,101548.27
2019-04-28T06:48:05.788Z,101549.42
2019-04-28T06:50:35.049Z,101551.75
2019-04-28T06:53:04.369Z,101548.12
2019-04-28T06:55:33.713Z,101556.06
2019-04-28T06:58:03.119Z,101559.39
2019-04-28T07:00:32.422Z,101563.27
2019-04-28T07:03:01.693Z,101556.10
2019-04-28T07:05:31.119Z,101556.75
2019-04-28T07:08:00.443Z,101557.75
2019-04-28T07:10:29.762Z,101555.47
2019-04-28T07:12:59.145Z,101560.69
2019-04-28T07:15:28.540Z,101562.87
2019-04-28T07:17:59.832Z,101567.47
2019-04-28T07:20:37.714Z,101572.06
2019-04-28T07:23:08.347Z,101569.06
2019-04-28T07:25:37.671Z,101563.14
2019-04-28T07:28:07.108Z,101561.91
2019-04-28T07:30:38.191Z,101566.63
2019-04-28T07:33:07.536Z,101570.66
2019-04-28T07:35:37.080Z,101579.20
2019-04-28T07:38:06.400Z,101577.44
2019-04-28T07:40:35.863Z,101573.27
2019-04-28T07:43:05.165Z,101574.28
2019-04-28T07:45:34.448Z,101585.41
2019-04-28T07:48:03.760Z,101582.97
2019-04-28T07:50:33.170Z,101577.84
2019-04-28T07:53:04.158Z,101582.42
2019-04-28T07:55:33.401Z,101582.85
2019-04-28T07:58:02.718Z,101585.39
2019-04-28T08:00:32.466Z,101587.13
2019-04-28T08:03:01.903Z,101591.16
2019-04-28T08:05:31.183Z,101589.78
2019-04-28T08:08:00.513Z,101595.16
2019-04-28T08:10:29.922Z,101595.98
2019-04-28T08:12:59.239Z,101593.58
2019-04-28T08:15:28.571Z,101599.13
2019-04-28T08:17:57.852Z,101597.38
2019-04-28T08:20:27.663Z,101605.44
2019-04-28T08:22:57.662Z,101602.95
2019-04-28T08:25:26.981Z,101606.70
2019-04-28T08:27:56.260Z,101610.44
2019-04-28T08:30:25.761Z,101610.34
2019-04-28T08:32:59.160Z,101618.20
2019-04-28T08:35:28.482Z,101627.23
2019-04-28T08:37:58.647Z,101621.44
2019-04-28T08:40:27.969Z,101627.02
2019-04-28T08:42:58.966Z,101633.00
2019-04-28T08:45:28.433Z,101631.20
2019-04-28T08:47:58.062Z,101637.60
2019-04-28T08:50:27.695Z,101643.56
2019-04-28T08:52:57.034Z,101648.72
2019-04-28T08:55:26.334Z,101648.34
2019-04-28T08:57:55.613Z,101650.91
2019-04-28T09:00:25.060Z,101654.67
2019-04-28T09:02:54.346Z,101656.69
2019-04-28T09:05:23.661Z,101657.11
2019-04-28T09:07:54.534Z,101656.49
2019-04-28T09:10:23.853Z,101657.27
2019-04-28T09:12:54.251Z,101658.67
2019-04-28T09:15:23.536Z,101657.68
2019-04-28T09:17:53.009Z,101664.64
2019-04-28T09:20:22.465Z,101663.97
2019-04-28T09:22:51.771Z,101666.75
2019-04-28T09:25:21.076Z,101664.00
2019-04-28T09:27:50.393Z,101661.64
2019-04-28T09:30:20.187Z,101667.98
2019-04-28T09:32:49.501Z,101673.61
2019-04-28T09:35:18.802Z,101675.40
2019-04-28T09:37:48.144Z,101677.02
2019-04-28T09:40:17.962Z,101681.98
2019-04-28T09:42:48.980Z,101683.52
2019-04-28T09:45:19.896Z,101693.41
2019-04-28T09:47:49.294Z,101693.12
2019-04-28T09:50:19.682Z,101695.04
2019-04-28T09:52:49.198Z,101694.33
2019-04-28T09:55:18.486Z,101701.43
2019-04-28T09:57:48.095Z,101704.17
2019-04-28T10:00:19.274Z,101705.09
2019-04-28T10:02:50.234Z,101708.53
2019-04-28T10:05:21.109Z,101705.14
2019-04-28T10:07:50.416Z,101712.78
2019-04-28T10:10:20.721Z,101712.08
2019-04-28T10:12:50.095Z,101709.76
2019-04-28T10:15:19.437Z,101717.09
2019-04-28T10:17:48.916Z,101717.28
2019-04-28T10:20:18.962Z,101719.43
2019-04-28T10:22:48.432Z,101718.92
2019-04-28T10:25:17.799Z,101716.78
2019-04-28T10:27:47.192Z,101722.14
2019-04-28T10:30:16.776Z,101717.14
2019-04-28T10:32:46.046Z,101722.17
2019-04-28T10:35:15.991Z,101726.25
2019-04-28T10:37:45.737Z,101722.55
2019-04-28T10:40:22.637Z,101722.98
2019-04-28T10:42:51.962Z,101728.95
2019-04-28T10:45:22.885Z,101729.83
2019-04-28T10:47:52.388Z,101731.56
2019-04-28T10:50:21.730Z,101738.30
2019-04-28T10:52:51.040Z,101744.06
2019-04-28T10:55:20.313Z,101745.13
2019-04-28T10:57:49.655Z,101745.55
2019-04-28T11:00:20.950Z,101745.95
2019-04-28T11:02:50.262Z,101745.24
2019-04-28T11:05:21.289Z,101742.59
2019-04-28T11:07:50.769Z,101743.36
2019-04-28T11:10:21.691Z,101741.86
2019-04-28T11:12:52.527Z,101742.75
2019-04-28T11:15:23.473Z,101746.22
2019-04-28T11:17:52.788Z,101742.41
2019-04-28T11:20:25.072Z,101742.41
2019-04-28T11:22:53.821Z,101748.10
2019-04-28T11:25:24.641Z,101752.02
2019-04-28T11:27:55.535Z,101747.92
2019-04-28T11:30:25.295Z,101747.55
2019-04-28T11:33:08.453Z,101747.46
2019-04-28T11:35:43.211Z,101744.04
2019-04-28T11:38:12.549Z,101749.46
2019-04-28T11:40:43.592Z,101749.55
2019-04-28T11:43:12.938Z,101755.85
2019-04-28T11:45:42.381Z,101758.55
2019-04-28T11:48:11.685Z,101760.84
2019-04-28T11:50:40.997Z,101765.34
2019-04-28T11:53:10.314Z,101766.77
2019-04-28T11:55:39.636Z,101767.73
2019-04-28T11:58:11.700Z,101767.09
2019-04-28T12:00:41.409Z,101772.81
2019-04-28T12:03:10.869Z,101779.22
2019-04-28T12:05:41.789Z,101781.66
2019-04-28T12:08:11.136Z,101783.64
2019-04-28T12:11:00.552Z,101787.89
2019-04-28T12:13:34.453Z,101786.75
2019-04-28T12:16:23.849Z,101793.19
2019-04-28T12:18:54.830Z,101793.55
2019-04-28T12:21:24.164Z,101794.16
2019-04-28T12:23:56.595Z,101792.80
2019-04-28T12:26:25.921Z,101795.63
2019-04-28T12:28:55.523Z,101802.22
2019-04-28T12:31:24.847Z,101801.72
2019-04-28T12:33:54.151Z,101801.24
2019-04-28T12:36:23.703Z,101802.38
2019-04-28T12:38:52.976Z,101803.06
2019-04-28T12:41:22.290Z,101805.84
2019-04-28T12:43:53.243Z,101807.64
2019-04-28T12:46:22.599Z,101815.63
2019-04-28T12:48:53.543Z,101814.91
2019-04-28T12:51:22.814Z,101814.45
2019-04-28T12:53:53.763Z,101824.60
2019-04-28T12:56:23.203Z,101817.43
2019-04-28T12:58:54.138Z,101820.88
2019-04-28T13:01:40.682Z,101824.16
2019-04-28T13:04:11.663Z,101823.09
2019-04-28T13:06:41.094Z,101822.40
2019-04-28T13:09:10.534Z,101822.56
2019-04-28T13:11:40.840Z,101821.53
2019-04-28T13:14:10.141Z,101828.53
2019-04-28T13:16:39.412Z,101830.34
2019-04-28T13:19:08.717Z,101828.73
2019-04-28T13:21:37.994Z,101827.66
2019-04-28T13:24:07.297Z,101838.98
2019-04-28T13:26:36.572Z,101835.97
2019-04-28T13:29:05.937Z,101838.46
2019-04-28T13:31:36.294Z,101842.31
2019-04-28T13:34:07.433Z,101840.23
2019-04-28T13:36:36.705Z,101841.93
2019-04-28T13:39:10.265Z,101839.28
2019-04-28T13:41:39.555Z,101840.58
2019-04-28T13:44:10.519Z,101837.20
2019-04-28T13:46:39.866Z,101837.47
2019-04-28T13:49:10.833Z,101828.72
2019-04-28T13:51:40.143Z,101828.59
2019-04-28T13:54:11.118Z,101826.61
2019-04-28T13:56:40.446Z,101830.41
2019-04-28T13:59:12.919Z,101835.57
2019-04-28T14:01:46.834Z,101839.50
2019-04-28T14:04:34.049Z,101828.52
2019-04-28T14:07:05.578Z,101826.25
2019-04-28T14:09:34.895Z,101819.30
2019-04-28T14:12:04.251Z,101831.64
2019-04-28T14:14:33.572Z,101834.83
2019-04-28T14:17:02.883Z,101840.91
2019-04-28T14:19:32.252Z,101835.78
2019-04-28T14:22:01.574Z,101840.56
2019-04-28T14:24:32.444Z,101845.00
2019-04-28T14:27:03.016Z,101850.94
2019-04-28T14:29:32.288Z,101852.68
2019-04-28T14:32:01.662Z,101844.40
2019-04-28T14:34:32.048Z,101848.83
2019-04-28T14:37:01.442Z,101845.48
2019-04-28T14:39:30.725Z,101851.90
2019-04-28T14:42:00.023Z,101856.19
2019-04-28T14:44:29.490Z,101851.47
2019-04-28T14:46:58.909Z,101854.50
2019-04-28T14:49:28.205Z,101866.02
2019-04-28T14:51:57.556Z,101864.41
2019-04-28T14:54:26.878Z,101864.14
2019-04-28T14:56:56.171Z,101866.63
2019-04-28T14:59:25.489Z,101855.31
2019-04-28T15:01:56.430Z,101864.18
2019-04-28T15:04:27.362Z,101865.09
2019-04-28T15:06:59.692Z,101864.72
2019-04-28T15:09:32.840Z,101868.45
2019-04-28T15:12:03.626Z,101861.91
2019-04-28T15:14:32.980Z,101871.70
2019-04-28T15:17:02.203Z,101870.97
2019-04-28T15:19:31.692Z,101869.63
2019-04-28T15:22:00.960Z,101872.45
2019-04-28T15:24:30.288Z,101874.32
2019-04-28T15:27:00.320Z,101878.95
2019-04-28T15:29:29.622Z,101882.98
2019-04-28T15:31:58.913Z,101883.33
2019-04-28T15:34:28.218Z,101882.86
2019-04-28T15:37:09.195Z,101891.86
2019-04-28T15:39:28.785Z,101886.23
2019-04-28T15:41:58.426Z,101886.44
2019-04-28T15:44:27.730Z,101890.66
2019-04-28T15:46:57.095Z,101888.73
2019-04-28T15:49:26.422Z,101894.05
2019-04-28T15:51:55.664Z,101902.48
2019-04-28T15:54:25.325Z,101891.47
2019-04-28T15:56:54.663Z,101895.79
2019-04-28T15:59:24.461Z,101899.50
2019-04-28T16:01:53.782Z,101899.19
2019-04-28T16:04:23.164Z,101899.95
2019-04-28T16:06:53.254Z,101901.74
2019-04-28T16:09:22.583Z,101906.02
2019-04-28T16:11:51.899Z,101910.61
2019-04-28T16:14:21.287Z,101915.05
2019-04-28T16:16:50.582Z,101916.99
2019-04-28T16:19:19.915Z,101922.23
2019-04-28T16:21:49.245Z,101923.44
2019-04-28T16:24:18.631Z,101925.02
2019-04-28T16:26:47.907Z,101935.23
2019-04-28T16:29:17.270Z,101935.20
2019-04-28T16:31:46.534Z,101933.59
2019-04-28T16:34:15.844Z,101937.42
2019-04-28T16:36:46.813Z,101934.44
2019-04-28T16:39:16.130Z,101934.05
2019-04-28T16:41:50.211Z,101937.47
2019-04-28T16:44:20.321Z,101940.39
2019-04-28T16:46:49.613Z,101939.79
2019-04-28T16:49:18.936Z,101939.41
2019-04-28T16:51:48.413Z,101942.01
2019-04-28T16:54:18.814Z,101949.76
2019-04-28T16:56:52.725Z,101958.55
2019-04-28T16:59:25.585Z,101956.77
2019-04-28T17:01:56.576Z,101965.36
2019-04-28T17:04:25.949Z,101970.14
2019-04-28T17:06:55.484Z,101970.17
2019-04-28T17:09:25.048Z,101972.98
2019-04-28T17:11:54.327Z,101980.16
2019-04-28T17:14:23.778Z,101978.92
2019-04-28T17:16:53.045Z,101984.84
2019-04-28T17:19:22.512Z,101980.30
2019-04-28T17:21:52.927Z,101991.31
2019-04-28T17:24:23.141Z,101974.81
2019-04-28T17:26:52.583Z,101979.63
2019-04-28T17:29:21.884Z,101981.52
2019-04-28T17:31:51.252Z,101990.34
2019-04-28T17:34:20.692Z,102000.97
2019-04-28T17:36:50.061Z,101990.46
2019-04-28T17:39:24.341Z,102002.04
2019-04-28T17:41:53.698Z,102000.30
2019-04-28T17:44:23.253Z,101988.81
2019-04-28T17:46:52.513Z,101994.92
2019-04-28T17:49:23.571Z,101982.57
2019-04-28T17:51:52.835Z,101995.20
2019-04-28T17:54:22.215Z,102001.88
2019-04-28T17:56:51.544Z,101999.91
2019-04-28T17:59:20.949Z,101998.97
2019-04-28T18:02:08.489Z,102004.37
2019-04-28T18:04:51.656Z,102005.48
2019-04-28T18:07:31.293Z,102005.60
2019-04-28T18:10:00.608Z,102012.17
2019-04-28T18:12:30.053Z,102018.59
2019-04-28T18:15:00.999Z,102022.59
2019-04-28T18:17:40.878Z,102028.58
2019-04-28T18:20:12.083Z,102025.16
2019-04-28T18:22:41.557Z,102028.86
2019-04-28T18:25:11.428Z,102034.50
2019-04-28T18:27:40.794Z,102032.06
2019-04-28T18:30:12.554Z,102035.34
2019-04-28T18:32:43.596Z,102044.85
2019-04-28T18:35:30.749Z,102043.23
2019-04-28T18:38:07.993Z,102055.11
2019-04-28T18:40:38.922Z,102067.24
2019-04-28T18:43:21.654Z,102071.22
2019-04-28T18:45:51.075Z,102072.53
2019-04-28T18:48:20.361Z,102069.38
2019-04-28T18:50:49.685Z,102068.37
2019-04-28T18:53:18.999Z,102077.53
2019-04-28T18:55:48.307Z,102075.20
2019-04-28T18:58:17.805Z,102082.47
2019-04-28T19:00:48.809Z,102079.20
2019-04-28T19:03:18.093Z,102080.75
2019-04-28T19:05:49.098Z,102085.89
2019-04-28T19:08:20.097Z,102083.48
2019-04-28T19:10:51.046Z,102091.38
2019-04-28T19:13:21.971Z,102091.27
2019-04-28T19:16:09.273Z,102091.08
2019-04-28T19:18:43.318Z,102098.41
2019-04-28T19:21:12.620Z,102100.66
2019-04-28T19:23:41.927Z,102104.30
2019-04-28T19:26:11.870Z,102115.72
2019-04-28T19:28:41.154Z,102119.05
2019-04-28T19:31:10.559Z,102123.89
2019-04-28T19:33:39.913Z,102127.74
2019-04-28T19:36:10.414Z,102119.97
2019-04-28T19:38:40.813Z,102120.25
2019-04-28T19:41:10.313Z,102123.17
2019-04-28T19:43:39.685Z,102134.16
2019-04-28T19:46:10.645Z,102132.07
2019-04-28T19:48:39.950Z,102138.65
2019-04-28T19:51:09.527Z,102140.08
2019-04-28T19:53:38.807Z,102139.80
2019-04-28T19:56:24.459Z,102146.88
2019-04-28T19:58:57.120Z,102146.37
2019-04-28T20:01:28.076Z,102154.84
2019-04-28T20:03:57.378Z,102150.30
2019-04-28T20:06:26.751Z,102155.77
2019-04-28T20:08:56.135Z,102153.73
2019-04-28T20:11:25.724Z,102164.75
2019-04-28T20:13:56.277Z,102163.81
2019-04-28T20:16:25.609Z,102165.29
2019-04-28T20:18:54.917Z,102169.45
2019-04-28T20:21:24.281Z,102177.98
2019-04-28T20:23:53.807Z,102179.22
2019-04-28T20:26:23.234Z,102182.00
2019-04-28T20:28:52.585Z,102185.52
2019-04-28T20:31:23.337Z,102190.72
2019-04-28T20:33:52.639Z,102191.59
2019-04-28T20:36:26.057Z,102191.07
2019-04-28T20:38:57.046Z,102195.11
2019-04-28T20:41:28.243Z,102197.66
2019-04-28T20:43:57.993Z,102199.48
2019-04-28T20:46:27.324Z,102198.30
2019-04-28T20:48:56.656Z,102200.84
2019-04-28T20:51:25.958Z,102197.93
2019-04-28T20:53:55.376Z,102197.27
2019-04-28T20:56:24.739Z,102199.88
2019-04-28T20:58:54.069Z,102200.17
2019-04-28T21:01:24.618Z,102204.10
2019-04-28T21:03:53.939Z,102205.98
2019-04-28T21:06:23.312Z,102206.16
2019-04-28T21:08:52.583Z,102211.41
2019-04-28T21:11:21.919Z,102212.95
2019-04-28T21:13:51.432Z,102211.11
2019-04-28T21:16:20.706Z,102204.33
2019-04-28T21:18:49.981Z,102203.88
2019-04-28T21:21:19.271Z,102209.84
2019-04-28T21:23:48.548Z,102209.97
2019-04-28T21:26:17.861Z,102207.92
2019-04-28T21:28:47.378Z,102210.49
2019-04-28T21:31:16.676Z,102199.87
2019-04-28T21:33:45.967Z,102207.70
2019-04-28T21:36:15.278Z,102210.52
2019-04-28T21:38:44.594Z,102209.55
2019-04-28T21:41:15.307Z,102207.93
2019-04-28T21:43:46.246Z,102205.47
2019-04-28T21:46:17.251Z,102215.16
2019-04-28T21:48:48.197Z,102211.96
2019-04-28T21:51:17.646Z,102206.42
2019-04-28T21:53:48.494Z,102211.37
2019-04-28T21:56:17.775Z,102218.38
2019-04-28T21:58:47.198Z,102218.38
2019-04-28T22:01:18.576Z,102219.57
2019-04-28T22:03:48.131Z,102220.16
2019-04-28T22:06:19.213Z,102215.22
2019-04-28T22:08:48.524Z,102206.91
2019-04-28T22:11:17.800Z,102214.03
2019-04-28T22:13:48.166Z,102213.69
2019-04-28T22:16:19.139Z,102210.72
2019-04-28T22:18:49.672Z,102208.98
2019-04-28T22:21:18.960Z,102211.71
2019-04-28T22:24:06.572Z,102220.63
2019-04-28T22:26:49.411Z,102221.05
2019-04-28T22:29:18.712Z,102224.08
2019-04-28T22:31:48.014Z,102227.64
2019-04-28T22:34:18.973Z,102226.58
2019-04-28T22:36:48.891Z,102231.05
2019-04-28T22:39:18.195Z,102236.47
2019-04-28T22:41:47.498Z,102235.53
2019-04-28T22:44:17.224Z,102233.78
2019-04-28T22:46:46.585Z,102237.73
2019-04-28T22:49:17.615Z,102238.30
2019-04-28T22:51:47.203Z,102240.39
2019-04-28T22:54:36.620Z,102245.86
2019-04-28T22:57:24.223Z,102242.09
2019-04-28T22:59:55.144Z,102248.75
2019-04-28T23:02:26.314Z,102249.69
2019-04-28T23:05:00.570Z,102251.08
2019-04-28T23:07:29.877Z,102255.55
2019-04-28T23:10:00.286Z,102257.47
2019-04-28T23:12:31.225Z,102256.31
2019-04-28T23:15:00.498Z,102255.64
2019-04-28T23:17:29.877Z,102257.47
2019-04-28T23:19:59.348Z,102252.49
2019-04-28T23:22:30.307Z,102261.97
2019-04-28T23:24:59.799Z,102259.88
2019-04-28T23:27:29.103Z,102260.94
2019-04-28T23:29:58.468Z,102259.82
2019-04-28T23:32:27.759Z,102264.44
2019-04-28T23:34:57.063Z,102265.23
2019-04-28T23:37:26.341Z,102264.09
2019-04-28T23:39:55.646Z,102259.84
2019-04-28T23:42:36.261Z,102261.77
2019-04-28T23:45:07.579Z,102268.19
2019-04-28T23:47:36.889Z,102269.12
2019-04-28T23:50:08.505Z,102273.19
2019-04-28T23:52:42.172Z,102271.80
2019-04-28T23:55:11.523Z,102267.66
2019-04-28T23:57:40.838Z,102271.34
